LIRNLIBR

Guest
Details From LIRN - Naples Capodichino
To LIBR - BRINDISI/Casale
Flight Number -
Tags generated
Created
Modified
Stats Distance 168 nm / 311 km
Max Altitude 17,200 ft / 5,243 m
Waypoints 3
Social Downloads 2
Likes 0
Share VATSIM

Download

Looking for another format? Having issues loading an existing format? Contact us
Advertisement - Login to hide

Notes

Basic altitude profile: - Ascent Rate: 2500ft/min - Ascent Speed: 250kts - Cruise Altitude: 35000ft - Cruise Speed: 420kts - Descent Rate: 1500ft/min - Descent Speed: 250kts Options: - Use NATs: yes - Use PACOTS: yes - Use low airways: yes - Use high airways: yes

Route

LIRN TOPNO LIBR

ID Type Via Altitude Latitude Longitude Leg Dist Tot Dist Heading (true) Name
O LIRN APT - 0 ft / 0 m 40.88603˚ 14.29078˚ - 0 nm - Naples Capodichino
TOPNO FIX - 17,200 ft / 5,243 m 40.95167˚ 16.10778˚ 82 nm 82 nm 87° / 88° -
O LIBR APT - 0 ft / 0 m 40.66082˚ 17.94267˚ 85 nm 167 nm 101° / 102° BRINDISI/Casale

Altitude Profile

Advertisement - Login to hide

Weather


0- 5 10 15 20 25 30 35+ Temperature / ° C

Clouds and Precipitation
Forecast for 2018-05-25 12:00 UTC. Updated 8 minutes ago

Ground ~20,000 ft ~40,000 ft Winds

LIRN

Details ICAO LIRN (NAP)
Name Naples Capodichino
Region Italy
Timezone Europe/Rome (UTC+2.0)
Stats Elevation 294 ft / 90 m (AMSL)
Location 40.886032° 14.290783°
Runways 1
Magnetic Variation 3.353° E

METAR

LIRN 251050Z 18007KT 150V230 9999 FEW020 SCT030 24/18 Q1016 NOSIG

Decode

TAF

TAF LIRN 250500Z 2506/2606 VRB04KT 9999 FEW030 BECMG 2508/2510 21010KT BECMG 2516/2518 VRB04KT TEMPO 2602/2605 4000 BR

Decode

Departure Runways

ID Width Length Bearing (true) Bearing (mag) Surface Threshold Offset Overrun Length
06 148 ft / 45 m 8,612 ft / 2,625 m 58.03° 54.68° Asphalt 1,309 ft / 399 m 0 ft / 0 m
24 148 ft / 45 m 8,612 ft / 2,625 m 238.05° 234.70° Asphalt 624 ft / 190 m 0 ft / 0 m

LIBR

Details ICAO LIBR (BDS)
Name BRINDISI/Casale
Region Italy
Timezone Europe/Rome (UTC+2.0)
Stats Elevation 47 ft / 14 m (AMSL)
Location 40.660824° 17.942673°
Runways 2
Magnetic Variation 3.935° E

METAR

LIBR 251050Z 32012KT CAVOK 23/18 Q1014

Decode

TAF

TAF LIBR 250500Z 2506/2606 33012KT 9999 FEW040

Decode

Destination Runways

ID Width Length Bearing (true) Bearing (mag) Surface Threshold Offset Overrun Length
13 148 ft / 45 m 9,398 ft / 2,865 m 136.56° 132.63° Asphalt 0 ft / 0 m 689 ft / 210 m
23 148 ft / 45 m 6,129 ft / 1,868 m 232.52° 228.59° Asphalt 230 ft / 70 m 0 ft / 0 m
31 148 ft / 45 m 9,398 ft / 2,865 m 316.58° 312.65° Asphalt 0 ft / 0 m 387 ft / 118 m
5 148 ft / 45 m 6,129 ft / 1,868 m 52.51° 48.58° Asphalt 0 ft / 0 m 0 ft / 0 m

Approach Navaids

Runway Type Ident Frequency Range Bearing (true) Bearing (mag) Slope Elevation
31 Localiser IBN 109.50 MHz 18 nm / 33 km 316.88° 312.95° - 48 ft / 15 m (AMSL)
31 Glidescope IBN 109.50 MHz 10 nm / 19 km 316.57° 312.64° 2.50° 94 ft / 29 m (AMSL)

Popular Alternatives